Time;durP1;ratioP1;P1;durP2;ratioP2;P2;SDS_P1;SDS_P2;PMS_P1;PMS_P2;Temp;Humidity;BMP_temperature;BMP_pressure;BME280_temperature;BME280_humidity;BME280_pressure;Samples;Min_cycle;Max_cycle;Signal;HPM_P1;HPM_P2
2022/06/23 00:00:27;;;;;;;16.13;5.00;;;;;;;21.66;65.34;100158.59;4996072;28;20029;-79
2022/06/23 00:02:56;;;;;;;12.43;4.57;;;;;;;21.64;65.69;100149.75;4996009;28;20373;-78
2022/06/23 00:05:26;;;;;;;8.98;4.38;;;;;;;21.66;65.88;100158.59;4996294;28;20105;-79
2022/06/23 00:07:57;;;;;;;12.05;4.45;;;;;;;21.61;65.71;100161.13;4994941;28;20038;-78
2022/06/23 00:10:28;;;;;;;15.07;4.27;;;;;;;21.65;65.29;100161.53;4995047;28;20033;-78
2022/06/23 00:12:55;;;;;;;14.02;3.92;;;;;;;21.61;64.55;100155.66;4979160;28;20057;-79
2022/06/23 00:15:23;;;;;;;11.88;3.83;;;;;;;21.56;64.44;100166.34;4978711;28;20034;-80
2022/06/23 00:18:01;;;;;;;14.73;4.20;;;;;;;21.59;64.75;100155.00;4995888;28;20026;-79
2022/06/23 00:20:33;;;;;;;10.00;4.60;;;;;;;21.58;64.67;100144.25;4994708;28;20026;-78
2022/06/23 00:23:09;;;;;;;15.48;3.90;;;;;;;21.53;64.33;100141.28;4995565;28;20026;-79
2022/06/23 00:25:56;;;;;;;6.80;3.70;;;;;;;21.47;63.82;100140.22;4995413;28;20567;-78
2022/06/23 00:28:29;;;;;;;10.98;3.80;;;;;;;21.43;63.29;100135.41;4994641;28;20030;-79
2022/06/23 00:31:00;;;;;;;16.27;4.32;;;;;;;21.38;63.18;100127.78;4993214;28;20121;-79
2022/06/23 00:33:30;;;;;;;10.13;3.85;;;;;;;21.32;62.49;100131.34;4994809;28;20030;-80
2022/06/23 00:35:58;;;;;;;9.65;3.63;;;;;;;21.31;62.57;100135.16;4995700;28;20046;-81
2022/06/23 00:38:30;;;;;;;13.55;3.95;;;;;;;21.30;62.04;100130.72;4995804;28;20463;-80
2022/06/23 00:40:58;;;;;;;8.15;4.15;;;;;;;21.30;62.45;100130.72;5001846;28;20188;-80
2022/06/23 00:43:27;;;;;;;9.80;4.00;;;;;;;21.34;62.18;100131.16;4981740;28;20030;-80
2022/06/23 00:46:14;;;;;;;11.88;4.57;;;;;;;21.31;62.29;100118.75;5014639;28;20036;-78
2022/06/23 00:48:46;;;;;;;17.63;4.38;;;;;;;21.24;62.42;100131.56;4997758;28;20054;-80
2022/06/23 00:51:29;;;;;;;15.35;4.25;;;;;;;21.20;62.90;100137.63;5014954;28;20500;-78
2022/06/23 00:54:04;;;;;;;9.32;4.05;;;;;;;21.20;63.04;100152.16;5014914;28;20026;-80
2022/06/23 00:56:36;;;;;;;7.30;3.13;;;;;;;21.21;63.20;100148.38;4996918;28;20030;-80
2022/06/23 00:59:14;;;;;;;20.55;4.20;;;;;;;21.16;63.25;100148.97;5015030;28;20037;-79
2022/06/23 01:02:06;;;;;;;16.77;4.65;;;;;;;21.14;62.63;100142.03;4981853;28;20504;-79
2022/06/23 01:04:53;;;;;;;9.27;5.15;;;;;;;21.15;62.65;100139.09;4997201;28;20030;-80
2022/06/23 01:07:54;;;;;;;17.08;4.35;;;;;;;21.14;62.01;100142.88;5014260;28;20077;-79
2022/06/23 01:10:43;;;;;;;20.67;4.55;;;;;;;21.13;61.90;100140.34;4996563;28;20084;-80
2022/06/23 01:13:40;;;;;;;17.55;3.97;;;;;;;21.20;61.74;100141.22;5014408;28;20026;-80
2022/06/23 01:16:06;;;;;;;12.45;4.70;;;;;;;21.14;61.78;100150.22;4996964;28;20113;-80
2022/06/23 01:18:43;;;;;;;14.52;4.60;;;;;;;21.06;62.21;100133.97;4997119;28;20033;-80
2022/06/23 01:21:21;;;;;;;8.15;3.70;;;;;;;21.02;60.76;100147.22;5014249;28;20547;-81
2022/06/23 01:24:16;;;;;;;9.65;4.18;;;;;;;21.01;61.39;100163.81;5013472;28;20040;-79
2022/06/23 01:27:09;;;;;;;9.73;4.47;;;;;;;20.96;61.63;100160.84;4996705;28;20121;-79
2022/06/23 01:29:42;;;;;;;9.63;2.75;;;;;;;20.95;55.63;100164.63;5014185;28;20022;-78
2022/06/23 01:32:34;;;;;;;22.48;3.70;;;;;;;20.99;55.03;100155.81;5014165;28;20045;-79
2022/06/23 01:35:51;;;;;;;23.42;4.63;;;;;;;20.99;55.50;100165.91;5014170;28;20097;-79
2022/06/23 01:38:30;;;;;;;10.10;2.75;;;;;;;21.00;53.95;100164.88;4984308;28;20116;-79
2022/06/23 01:41:05;;;;;;;6.45;2.30;;;;;;;20.98;53.08;100161.47;4996141;28;20400;-80
2022/06/23 01:43:48;;;;;;;7.97;2.88;;;;;;;20.97;53.05;100168.03;4997635;28;20511;-79
2022/06/23 01:46:45;;;;;;;7.22;3.08;;;;;;;20.96;52.74;100177.25;4996735;28;20068;-79
2022/06/23 01:49:38;;;;;;;12.88;2.97;;;;;;;20.99;52.64;100185.91;5013472;28;20531;-80
2022/06/23 01:52:18;;;;;;;19.45;4.55;;;;;;;21.02;53.75;100190.13;5007726;28;20037;-80
2022/06/23 01:54:47;;;;;;;18.90;5.57;;;;;;;21.06;53.89;100205.09;5013902;28;20024;-80
2022/06/23 01:57:32;;;;;;;14.98;5.60;;;;;;;21.01;54.64;100202.94;5013726;28;20630;-81
2022/06/23 02:00:15;;;;;;;11.23;5.60;;;;;;;21.02;54.49;100206.53;4995770;28;20042;-80
2022/06/23 02:02:51;;;;;;;17.17;5.30;;;;;;;20.97;54.97;100206.28;4996104;28;20033;-80
2022/06/23 02:05:22;;;;;;;18.27;5.72;;;;;;;20.93;54.70;100216.78;5013477;28;20026;-80
2022/06/23 02:08:20;;;;;;;14.60;5.40;;;;;;;20.89;54.36;100200.97;4996208;28;20030;-79
2022/06/23 02:10:56;;;;;;;7.20;4.35;;;;;;;20.90;53.52;100203.53;5013479;28;20026;-79
2022/06/23 02:13:45;;;;;;;14.32;5.15;;;;;;;20.85;53.87;100207.91;5013263;28;20018;-80
2022/06/23 02:16:28;;;;;;;7.28;3.95;;;;;;;20.86;53.39;100204.97;4995782;28;20044;-80
2022/06/23 02:19:31;;;;;;;13.35;4.10;;;;;;;20.84;53.93;100206.22;5013319;28;20034;-80
2022/06/23 02:22:16;;;;;;;20.13;4.70;;;;;;;20.77;53.17;100210.78;5010072;28;20042;-80
2022/06/23 02:24:55;;;;;;;10.68;4.25;;;;;;;20.64;53.02;100196.00;5013315;28;20057;-79
2022/06/23 02:27:32;;;;;;;11.45;4.07;;;;;;;20.68;51.83;100204.63;5011938;28;20038;-80
2022/06/23 02:30:03;;;;;;;6.80;3.33;;;;;;;20.71;51.66;100206.13;5013140;28;20033;-81
2022/06/23 02:32:47;;;;;;;9.20;3.05;;;;;;;20.71;51.10;100212.44;5013013;28;20037;-80
2022/06/23 02:35:30;;;;;;;10.65;2.63;;;;;;;20.75;50.72;100207.41;5012252;28;20123;-80
2022/06/23 02:38:20;;;;;;;9.55;3.55;;;;;;;20.85;50.29;100196.97;4995177;28;20046;-80
2022/06/23 02:40:49;;;;;;;7.80;2.92;;;;;;;20.82;50.03;100195.50;5012994;28;20053;-81
2022/06/23 02:43:41;;;;;;;15.85;3.53;;;;;;;20.78;50.05;100191.47;4994837;28;20491;-80
2022/06/23 02:46:29;;;;;;;10.98;2.65;;;;;;;20.78;50.25;100202.41;5012863;28;20440;-81
2022/06/23 02:49:31;;;;;;;5.78;3.30;;;;;;;20.84;50.38;100206.22;5012791;28;20064;-79
2022/06/23 02:52:28;;;;;;;4.97;2.08;;;;;;;20.86;48.75;100199.50;4995080;28;20120;-79
2022/06/23 02:55:37;;;;;;;10.57;2.75;;;;;;;20.86;49.59;100204.09;5012615;28;20033;-79
2022/06/23 02:58:12;;;;;;;15.02;3.72;;;;;;;20.80;50.80;100203.03;5012076;28;20072;-80
2022/06/23 03:00:44;;;;;;;15.68;4.85;;;;;;;20.68;52.45;100195.59;5012789;28;20025;-81
2022/06/23 03:03:28;;;;;;;;;;;;;;;20.60;53.54;100202.06;4995483;28;20057;-78
2022/06/23 03:06:22;;;;;;;11.68;4.35;;;;;;;20.54;53.49;100206.44;5012372;28;19914;-80
2022/06/23 03:09:10;;;;;;;9.82;4.68;;;;;;;20.54;53.14;100206.44;5012569;28;20452;-80
2022/06/23 03:11:59;;;;;;;22.58;5.35;;;;;;;20.52;53.66;100197.59;5012546;28;20120;-81
2022/06/23 03:14:31;;;;;;;14.30;5.82;;;;;;;20.62;54.03;100214.50;5012867;28;20022;-82
2022/06/23 03:17:25;;;;;;;26.10;5.03;;;;;;;20.57;54.36;100211.53;4995414;28;20026;-80
2022/06/23 03:20:02;;;;;;;8.00;4.53;;;;;;;20.67;54.60;100204.84;5012134;28;20034;-80
2022/06/23 03:22:49;;;;;;;24.10;5.10;;;;;;;20.68;55.14;100214.72;4995015;28;20056;-78
2022/06/23 03:25:38;;;;;;;11.73;3.65;;;;;;;20.60;53.43;100215.75;5011964;28;20065;-78
2022/06/23 03:28:23;;;;;;;29.50;6.22;;;;;;;20.61;54.27;100210.06;4994726;28;20051;-80
2022/06/23 03:31:00;;;;;;;11.50;3.85;;;;;;;20.74;52.32;100222.97;4995324;28;20064;-83
2022/06/23 03:33:44;;;;;;;11.82;4.53;;;;;;;20.83;54.10;100231.84;5013419;28;20025;-82
2022/06/23 03:36:28;;;;;;;19.25;5.45;;;;;;;20.91;55.29;100242.66;5013456;28;20460;-85
2022/06/23 03:42:47;;;;;;;23.40;5.60;;;;;;;20.99;56.40;100250.69;4924022;29;20473;-79
2022/06/23 03:45:28;;;;;;;18.95;5.13;;;;;;;20.94;57.08;100258.66;4910890;29;20040;-81
2022/06/23 03:48:13;;;;;;;18.60;4.93;;;;;;;20.93;56.79;100260.53;4918777;29;20063;-79
2022/06/23 03:51:05;;;;;;;16.25;6.85;;;;;;;20.98;56.69;100263.50;4922542;29;20035;-77
2022/06/23 03:53:36;;;;;;;23.58;5.70;;;;;;;21.01;57.11;100262.25;4923602;29;20027;-77
2022/06/23 03:56:07;;;;;;;16.23;5.20;;;;;;;21.02;55.79;100263.94;4934336;28;20035;-77
2022/06/23 03:58:45;;;;;;;16.63;6.10;;;;;;;21.13;55.94;100266.13;4992099;28;20023;-75
2022/06/23 04:01:31;;;;;;;18.02;4.25;;;;;;;21.18;54.38;100263.66;4962195;28;20034;-75
2022/06/23 04:04:04;;;;;;;21.35;5.35;;;;;;;21.17;55.43;100256.50;5011369;28;20153;-77
2022/06/23 04:06:32;;;;;;;25.35;5.65;;;;;;;21.25;54.05;100274.63;4991285;28;20029;-78
2022/06/23 04:09:05;;;;;;;13.93;4.43;;;;;;;21.20;53.53;100267.03;5002426;28;20025;-77
2022/06/23 04:11:54;;;;;;;8.55;4.00;;;;;;;21.27;53.20;100273.38;5003780;28;20549;-74
2022/06/23 04:14:57;;;;;;;20.08;4.25;;;;;;;21.28;52.49;100269.63;5000863;28;20034;-77
2022/06/23 04:17:32;;;;;;;16.70;3.47;;;;;;;21.37;51.79;100268.41;5011243;28;20076;-77
2022/06/23 04:20:13;;;;;;;5.50;3.42;;;;;;;21.38;51.73;100274.69;5011143;28;20021;-76
2022/06/23 04:23:02;;;;;;;13.23;3.55;;;;;;;21.49;51.59;100271.38;5011360;28;20022;-78
2022/06/23 04:26:14;;;;;;;14.75;4.97;;;;;;;21.52;50.76;100276.44;4993494;28;20022;-77
2022/06/23 04:28:50;;;;;;;11.10;4.10;;;;;;;21.63;51.02;100275.84;4994543;28;20156;-82
2022/06/23 04:31:28;;;;;;;31.13;7.03;;;;;;;21.74;50.92;100279.91;5011806;28;20084;-78
2022/06/23 04:33:57;;;;;;;24.08;5.25;;;;;;;21.83;51.70;100270.47;4994037;28;20045;-82
2022/06/23 04:36:27;;;;;;;19.23;6.13;;;;;;;21.93;51.98;100268.19;4994375;28;20053;-80
2022/06/23 04:39:01;;;;;;;18.33;6.13;;;;;;;22.00;52.04;100274.53;4992869;28;20128;-80
2022/06/23 04:41:34;;;;;;;20.00;5.75;;;;;;;22.03;52.14;100265.91;5010334;28;20104;-78
2022/06/23 04:44:13;;;;;;;31.77;6.10;;;;;;;22.09;52.06;100276.88;4993085;28;20111;-77
2022/06/23 04:46:47;;;;;;;18.40;5.60;;;;;;;22.11;52.43;100268.44;4997985;28;20034;-78
2022/06/23 04:49:27;;;;;;;44.75;8.15;;;;;;;22.13;52.81;100247.16;5014136;28;20033;-78
2022/06/23 04:51:59;;;;;;;15.75;3.80;;;;;;;22.19;50.38;100258.16;5014267;28;20037;-79
2022/06/23 04:54:35;;;;;;;12.27;3.03;;;;;;;22.20;48.55;100253.47;5014091;28;20108;-78
2022/06/23 04:57:19;;;;;;;11.65;3.92;;;;;;;22.24;49.08;100260.25;4981001;28;20099;-80
2022/06/23 04:59:54;;;;;;;13.82;3.38;;;;;;;22.29;48.59;100252.25;5013966;28;20108;-79
2022/06/23 05:02:41;;;;;;;17.05;3.75;;;;;;;22.40;48.19;100264.47;4993526;28;20029;-78
2022/06/23 05:05:14;;;;;;;19.17;4.18;;;;;;;22.48;48.50;100256.88;4993722;28;20386;-79
2022/06/23 05:08:02;;;;;;;14.68;4.43;;;;;;;22.62;48.65;100264.06;4993575;28;20507;-79
2022/06/23 05:10:37;;;;;;;13.93;3.83;;;;;;;22.70;47.97;100269.34;4993745;28;20459;-79
2022/06/23 05:13:15;;;;;;;10.00;3.25;;;;;;;22.80;48.12;100265.34;4995002;28;20098;-81
2022/06/23 05:15:48;;;;;;;13.90;3.38;;;;;;;22.91;47.59;100267.41;4978074;28;20037;-78
2022/06/23 05:18:58;;;;;;;23.52;4.05;;;;;;;23.05;47.85;100275.44;4993412;28;20049;-81
2022/06/23 05:21:36;;;;;;;16.75;4.05;;;;;;;23.17;47.00;100281.94;4992669;28;20042;-80
2022/06/23 05:24:13;;;;;;;25.42;4.15;;;;;;;23.30;45.71;100283.81;4995485;28;20375;-79
2022/06/23 05:26:46;;;;;;;9.25;3.67;;;;;;;23.36;42.47;100282.94;4993142;28;20033;-77
2022/06/23 05:29:22;;;;;;;8.77;3.13;;;;;;;23.43;41.47;100278.28;4994037;28;20527;-80
2022/06/23 05:31:53;;;;;;;18.13;1.92;;;;;;;23.51;40.75;100285.47;4992854;28;20030;-77
2022/06/23 05:34:32;;;;;;;8.60;2.28;;;;;;;23.58;39.78;100276.13;4992814;28;20129;-80
2022/06/23 05:37:04;;;;;;;8.32;3.28;;;;;;;23.62;40.30;100282.03;4994173;28;20114;-81
2022/06/23 05:39:46;;;;;;;7.47;2.03;;;;;;;23.72;40.27;100294.25;4994225;28;20061;-81
2022/06/23 05:42:26;;;;;;;5.03;1.60;;;;;;;23.76;39.99;100279.00;4994052;28;20096;-82
2022/06/23 05:45:09;;;;;;;6.18;1.83;;;;;;;23.84;39.46;100291.66;4995355;28;20095;-84
2022/06/23 05:47:38;;;;;;;7.93;1.40;;;;;;;23.88;39.36;100281.06;4993927;28;20140;-78
2022/06/23 05:50:18;;;;;;;10.07;2.63;;;;;;;23.96;39.21;100283.56;4992071;28;20655;-78
2022/06/23 05:53:24;;;;;;;5.97;1.88;;;;;;;24.07;38.82;100289.19;4993608;28;20026;-78
2022/06/23 05:55:57;;;;;;;21.63;2.22;;;;;;;24.08;39.56;100282.63;4917196;28;20130;-83
2022/06/23 05:58:41;;;;;;;13.07;2.60;;;;;;;24.28;38.93;100288.00;4995786;28;20372;-84
2022/06/23 06:01:21;;;;;;;8.82;1.98;;;;;;;24.40;38.87;100278.03;4995028;28;20029;-80
2022/06/23 06:03:57;;;;;;;10.40;1.95;;;;;;;24.49;38.68;100290.41;4992784;28;20088;-79
2022/06/23 06:06:23;;;;;;;7.10;1.65;;;;;;;24.51;38.35;100299.28;4993703;28;20030;-78
2022/06/23 06:09:35;;;;;;;6.60;1.70;;;;;;;24.64;37.86;100309.34;4992516;28;20039;-79
2022/06/23 06:12:04;;;;;;;;;;;;;;;24.68;38.16;100308.66;4987316;28;20046;-80
2022/06/23 06:14:33;;;;;;;6.28;1.55;;;;;;;24.65;37.35;100306.34;4992731;28;19910;-79
2022/06/23 06:17:01;;;;;;;4.30;1.52;;;;;;;24.67;36.75;100308.88;4976304;28;20393;-80
2022/06/23 06:19:31;;;;;;;16.77;2.45;;;;;;;24.62;37.08;100317.78;4976757;28;20456;-80
2022/06/23 06:22:05;;;;;;;9.45;2.40;;;;;;;24.75;37.56;100325.09;4993355;28;20452;-79
2022/06/23 06:24:41;;;;;;;16.58;2.75;;;;;;;24.84;38.09;100321.88;4993408;28;20022;-79
2022/06/23 06:27:13;;;;;;;5.95;1.77;;;;;;;24.92;36.80;100329.84;4993234;28;20026;-81
2022/06/23 06:29:44;;;;;;;13.75;2.35;;;;;;;24.89;36.93;100327.53;4993361;28;20026;-80
2022/06/23 06:32:28;;;;;;;21.90;2.40;;;;;;;24.92;37.18;100317.19;4992319;28;20128;-80
2022/06/23 06:35:06;;;;;;;13.48;2.25;;;;;;;25.00;37.17;100314.97;4993666;28;20023;-79
2022/06/23 06:37:36;;;;;;;9.63;2.47;;;;;;;25.09;36.91;100307.25;4993018;28;20484;-80
2022/06/23 06:40:06;;;;;;;10.57;1.98;;;;;;;25.10;36.97;100314.47;4993436;28;20036;-79
2022/06/23 06:42:41;;;;;;;5.50;1.52;;;;;;;25.21;37.00;100324.72;4993103;28;20102;-80
2022/06/23 06:45:11;;;;;;;7.35;1.95;;;;;;;25.26;37.03;100309.19;4991914;28;20034;-81
2022/06/23 06:47:39;;;;;;;2.75;1.42;;;;;;;25.37;37.28;100310.34;4993593;28;20099;-85
2022/06/23 06:50:17;;;;;;;6.68;2.28;;;;;;;25.40;37.76;100305.25;4992370;28;20114;-84
2022/06/23 06:52:43;;;;;;;13.90;2.20;;;;;;;25.52;37.62;100310.84;4994262;28;20026;-85
2022/06/23 06:55:18;;;;;;;12.30;3.08;;;;;;;25.60;37.47;100312.44;4992112;28;20022;-86
2022/06/23 06:58:28;;;;;;;8.30;1.80;;;;;;;25.59;37.59;100317.13;4993884;28;20514;-86
2022/06/23 07:01:06;;;;;;;11.15;2.72;;;;;;;25.63;37.65;100321.09;4974825;28;20038;-86
2022/06/23 07:03:34;;;;;;;12.35;2.70;;;;;;;25.59;38.14;100317.13;4974439;28;20102;-85
2022/06/23 07:06:09;;;;;;;11.57;1.98;;;;;;;25.57;37.70;100316.50;4994083;28;20125;-83
2022/06/23 07:09:09;;;;;;;19.30;2.60;;;;;;;25.50;38.05;100323.19;4991314;28;20034;-86
2022/06/23 07:11:52;;;;;;;10.70;2.10;;;;;;;25.50;38.16;100318.50;4994013;28;20033;-85
2022/06/23 07:14:42;;;;;;;18.67;3.45;;;;;;;25.54;38.01;100311.47;4976487;28;20027;-85
2022/06/23 07:17:08;;;;;;;5.95;1.80;;;;;;;25.56;37.80;100316.75;4995413;28;20053;-85
2022/06/23 07:19:55;;;;;;;3.30;1.70;;;;;;;25.44;37.60;100306.44;4999152;28;20499;-84
2022/06/23 07:22:32;;;;;;;7.13;2.03;;;;;;;25.42;37.92;100310.50;4995036;28;20030;-84
2022/06/23 07:25:07;;;;;;;6.97;2.47;;;;;;;25.35;37.51;100309.75;4995915;28;20117;-85
2022/06/23 07:27:43;;;;;;;8.18;2.05;;;;;;;25.33;38.31;100314.63;4996308;28;20037;-86
2022/06/23 07:30:15;;;;;;;;;;;;;;;25.24;38.84;100313.25;4995972;28;20061;-84
2022/06/23 07:32:51;;;;;;;5.28;1.70;;;;;;;25.08;38.80;100316.56;4998644;28;19997;-85
2022/06/23 07:35:43;;;;;;;6.90;1.88;;;;;;;25.08;38.15;100317.41;4998722;28;20026;-85
2022/06/23 07:38:39;;;;;;;2.90;1.42;;;;;;;25.15;38.41;100318.22;4998703;28;20031;-85
2022/06/23 07:41:11;;;;;;;12.57;1.55;;;;;;;25.12;38.35;100323.31;4998627;28;20530;-85
2022/06/23 07:43:49;;;;;;;16.58;2.65;;;;;;;25.18;38.29;100325.16;4998656;28;20050;-85
2022/06/23 07:46:17;;;;;;;5.13;1.77;;;;;;;25.14;38.52;100334.94;4993590;28;20026;-85
2022/06/23 07:48:43;;;;;;;4.85;1.35;;;;;;;25.25;38.41;100334.22;5002990;28;20035;-84
2022/06/23 07:51:12;;;;;;;9.35;2.30;;;;;;;25.39;38.22;100330.25;5000776;28;20042;-85
2022/06/23 07:53:41;;;;;;;3.30;1.48;;;;;;;25.41;37.19;100322.59;4992986;28;20026;-85
2022/06/23 07:56:12;;;;;;;3.78;1.45;;;;;;;25.41;36.93;100325.38;4992810;28;20054;-85
2022/06/23 07:58:42;;;;;;;4.47;1.90;;;;;;;25.45;37.25;100324.66;4993833;28;20037;-86
2022/06/23 08:01:51;;;;;;;7.03;1.90;;;;;;;25.48;37.26;100323.34;4977222;28;20269;-86
2022/06/23 08:04:42;;;;;;;2.17;1.00;;;;;;;25.33;37.27;100322.88;4957315;28;20074;-86
2022/06/23 08:07:11;;;;;;;6.53;1.97;;;;;;;25.42;37.17;100319.59;4992604;28;20065;-88
2022/06/23 08:09:43;;;;;;;6.50;1.75;;;;;;;25.42;37.06;100310.50;4992468;28;20034;-86
2022/06/23 08:18:05;;;;;;;14.25;2.08;;;;;;;25.92;37.08;100312.03;4994714;28;20042;-86
2022/06/23 08:20:36;;;;;;;7.90;1.73;;;;;;;26.03;37.09;100309.56;4993230;28;20477;-84
2022/06/23 08:23:05;;;;;;;10.23;2.15;;;;;;;25.98;36.77;100302.84;4996147;28;20038;-86
2022/06/23 08:25:32;;;;;;;4.70;1.80;;;;;;;25.88;37.08;100297.03;4997539;28;20129;-85
2022/06/23 08:27:59;;;;;;;11.38;1.48;;;;;;;26.02;37.54;100294.13;4998335;28;20034;-85
2022/06/23 08:30:28;;;;;;;9.60;1.58;;;;;;;26.16;37.46;100296.47;4995891;28;20038;-85
2022/06/23 08:32:58;;;;;;;4.00;1.77;;;;;;;26.22;37.14;100298.28;4996414;28;20034;-85
2022/06/23 08:35:38;;;;;;;6.95;1.65;;;;;;;26.28;36.98;100291.00;4995436;28;20027;-85
2022/06/23 08:38:26;;;;;;;15.75;2.78;;;;;;;25.99;38.35;100282.47;4996226;28;20038;-85
2022/06/23 08:41:35;;;;;;;5.18;1.75;;;;;;;26.03;37.95;100282.00;4996668;28;20058;-84
2022/06/23 08:44:31;;;;;;;9.13;2.25;;;;;;;26.02;37.96;100275.66;4948268;28;20058;-80
2022/06/23 08:47:06;;;;;;;8.70;1.67;;;;;;;26.19;38.31;100270.34;4992669;28;20054;-77
2022/06/23 08:49:41;;;;;;;11.20;2.03;;;;;;;26.07;38.88;100277.69;4976173;28;20050;-78
2022/06/23 08:52:27;;;;;;;6.40;1.83;;;;;;;26.05;38.78;100279.88;4977529;28;20484;-79
2022/06/23 08:55:15;;;;;;;7.68;2.08;;;;;;;26.06;39.59;100282.38;4977153;28;20030;-82
2022/06/23 08:58:03;;;;;;;12.70;2.67;;;;;;;26.19;38.95;100275.84;4977190;28;20033;-78
2022/06/23 09:00:44;;;;;;;5.88;2.05;;;;;;;26.40;39.22;100261.53;4993737;28;20377;-79
2022/06/23 09:03:36;;;;;;;8.27;2.20;;;;;;;26.69;38.40;100266.16;4976333;28;20038;-78
2022/06/23 09:06:29;;;;;;;9.88;2.28;;;;;;;26.64;38.81;100268.75;4973082;28;20041;-79
2022/06/23 09:09:13;;;;;;;3.80;1.98;;;;;;;26.57;38.43;100272.72;4975097;28;20125;-77
2022/06/23 09:12:01;;;;;;;9.02;2.08;;;;;;;26.55;38.12;100269.34;4974962;28;20035;-81
2022/06/23 09:15:06;;;;;;;12.13;1.95;;;;;;;26.68;38.56;100261.69;4974673;28;20057;-78
2022/06/23 09:17:53;;;;;;;14.70;2.10;;;;;;;26.77;38.83;100263.00;4945769;28;20047;-80
2022/06/23 09:20:54;;;;;;;5.80;1.98;;;;;;;26.80;37.72;100262.56;4995421;28;20537;-77
2022/06/23 09:23:50;;;;;;;6.82;1.90;;;;;;;26.71;39.30;100258.47;5013811;28;20029;-79
2022/06/23 09:26:41;;;;;;;9.30;1.75;;;;;;;26.62;39.97;100257.13;4996043;28;20040;-78
2022/06/23 09:29:45;;;;;;;3.67;1.63;;;;;;;26.56;40.21;100254.47;5013879;28;20030;-79
2022/06/23 09:32:35;;;;;;;10.43;2.50;;;;;;;26.60;39.94;100253.78;5013370;28;20488;-78
2022/06/23 09:35:29;;;;;;;8.30;1.80;;;;;;;26.54;40.27;100251.13;5013546;28;20036;-78
2022/06/23 09:38:16;;;;;;;8.00;2.22;;;;;;;26.55;40.17;100258.31;5013440;28;20034;-80
2022/06/23 09:41:07;;;;;;;9.90;2.38;;;;;;;26.51;41.38;100255.22;5012977;28;20116;-79
2022/06/23 09:43:56;;;;;;;34.53;2.80;;;;;;;26.30;40.75;100255.75;5007118;28;20100;-77
2022/06/23 09:46:24;;;;;;;4.40;1.63;;;;;;;26.23;41.53;100260.53;4976189;28;20041;-77
2022/06/23 09:49:27;;;;;;;7.95;2.03;;;;;;;26.29;41.88;100256.84;4976235;28;20042;-78
2022/06/23 09:52:16;;;;;;;7.72;1.90;;;;;;;26.26;41.96;100254.56;4976300;28;20030;-79
2022/06/23 09:54:52;;;;;;;12.63;2.10;;;;;;;26.43;41.51;100247.25;4980023;28;20070;-77
2022/06/23 09:57:36;;;;;;;11.63;2.15;;;;;;;26.61;41.70;100252.69;4976589;28;20096;-77
2022/06/23 10:00:13;;;;;;;17.52;2.40;;;;;;;26.75;41.97;100248.63;4993050;28;20457;-76
2022/06/23 10:02:54;;;;;;;10.57;1.80;;;;;;;26.93;41.63;100239.41;4993538;28;20101;-76
2022/06/23 10:05:38;;;;;;;6.72;1.77;;;;;;;27.10;41.61;100243.09;4993421;28;20334;-79
2022/06/23 10:08:39;;;;;;;11.15;1.77;;;;;;;27.04;40.87;100244.94;4975563;28;20030;-75
2022/06/23 10:11:26;;;;;;;11.25;1.75;;;;;;;26.86;41.81;100249.72;4975410;28;20630;-76
2022/06/23 10:14:11;;;;;;;14.07;1.75;;;;;;;26.69;42.75;100243.22;4975343;28;20030;-76
2022/06/23 10:16:50;;;;;;;15.68;3.38;;;;;;;26.78;43.02;100241.78;4975468;28;20054;-76
2022/06/23 10:19:38;;;;;;;6.10;2.22;;;;;;;26.89;42.93;100238.22;4975036;28;20385;-80
2022/06/23 10:22:23;;;;;;;10.60;2.53;;;;;;;26.96;42.36;100245.31;4992758;28;20046;-80
2022/06/23 10:25:28;;;;;;;44.67;3.22;;;;;;;26.97;42.42;100244.19;4993537;28;20046;-79
2022/06/23 10:28:15;;;;;;;8.85;1.98;;;;;;;26.95;42.29;100227.06;4993868;28;20026;-81
2022/06/23 10:31:11;;;;;;;10.68;2.97;;;;;;;27.03;42.99;100234.94;4993750;28;20045;-80
2022/06/23 10:34:17;;;;;;;2.92;1.77;;;;;;;27.06;42.48;100250.22;4979191;28;20058;-81
2022/06/23 10:37:04;;;;;;;12.38;2.90;;;;;;;26.95;43.14;100260.16;4994202;28;20066;-80
2022/06/23 10:39:56;;;;;;;5.15;2.17;;;;;;;27.00;43.35;100252.00;4976077;28;20052;-82
2022/06/23 10:42:28;;;;;;;12.25;2.47;;;;;;;27.11;43.16;100264.13;4992772;28;20058;-81
2022/06/23 10:45:25;;;;;;;9.23;2.00;;;;;;;27.07;42.60;100262.06;5009121;28;20038;-87
2022/06/23 10:48:12;;;;;;;14.55;3.13;;;;;;;27.09;41.63;100259.94;4997366;28;20029;-88
2022/06/23 10:50:49;;;;;;;28.88;2.78;;;;;;;27.13;42.54;100261.09;5014594;28;20021;-89
2022/06/23 10:53:38;;;;;;;8.30;1.73;;;;;;;27.15;42.07;100258.97;5014944;28;20096;-89
2022/06/23 10:56:28;;;;;;;9.40;2.60;;;;;;;27.27;42.71;100266.16;5015431;28;20057;-88
2022/06/23 10:59:02;;;;;;;6.97;1.73;;;;;;;27.39;42.41;100280.78;5013429;28;20084;-81
2022/06/23 11:01:46;;;;;;;8.35;2.35;;;;;;;27.30;42.45;100278.63;4995934;28;20040;-80
2022/06/23 11:04:49;;;;;;;8.52;1.85;;;;;;;27.19;43.07;100293.28;4994610;28;20029;-79
2022/06/23 11:07:54;;;;;;;7.20;2.58;;;;;;;27.18;43.53;100286.09;4996776;28;20033;-91
2022/06/23 11:10:39;;;;;;;5.20;2.25;;;;;;;27.13;42.97;100291.47;5013689;28;20041;-88
2022/06/23 11:13:37;;;;;;;14.77;2.25;;;;;;;27.14;42.32;100296.78;5013507;28;20052;-87
2022/06/23 11:16:21;;;;;;;8.38;2.50;;;;;;;27.19;43.01;100285.00;4996023;28;20495;-80
2022/06/23 11:19:15;;;;;;;8.45;2.25;;;;;;;26.98;42.28;100281.78;5012454;28;20107;-81
2022/06/23 11:22:11;;;;;;;14.40;1.88;;;;;;;26.83;43.05;100278.66;4965018;28;20038;-80
2022/06/23 11:24:45;;;;;;;4.40;1.67;;;;;;;26.90;42.17;100271.09;5010925;28;20053;-81
2022/06/23 11:27:21;;;;;;;7.55;1.75;;;;;;;26.73;42.09;100280.28;4993437;28;20115;-80
2022/06/23 11:30:04;;;;;;;2.67;1.40;;;;;;;26.69;41.57;100277.19;4993437;28;20057;-80
2022/06/23 11:33:03;;;;;;;5.10;1.48;;;;;;;26.68;41.80;100280.16;5009903;28;20049;-81
2022/06/23 11:36:03;;;;;;;7.43;1.80;;;;;;;26.77;41.27;100285.09;4993348;28;20049;-80
2022/06/23 11:38:36;;;;;;;7.35;2.05;;;;;;;26.86;40.96;100289.22;4989055;28;20132;-80
2022/06/23 11:41:20;;;;;;;5.15;1.70;;;;;;;26.84;41.21;100288.63;5011689;28;20131;-79
2022/06/23 11:44:22;;;;;;;13.00;1.73;;;;;;;27.03;41.03;100284.63;5005322;28;20411;-81
2022/06/23 11:47:01;;;;;;;7.05;1.67;;;;;;;27.25;40.92;100275.75;4990738;28;20062;-80
2022/06/23 11:49:41;;;;;;;19.77;1.98;;;;;;;27.16;38.34;100278.03;4991647;28;20050;-79
2022/06/23 11:52:24;;;;;;;14.32;2.13;;;;;;;27.24;38.38;100268.56;4991817;28;20118;-80
2022/06/23 11:55:18;;;;;;;11.30;2.13;;;;;;;27.51;38.76;100265.06;4977723;28;20498;-80
2022/06/23 11:58:22;;;;;;;12.70;2.10;;;;;;;27.58;38.79;100261.31;4963253;28;20030;-80
2022/06/23 12:01:13;;;;;;;10.85;1.88;;;;;;;27.74;38.79;100263.28;4978900;28;20036;-82
2022/06/23 12:03:57;;;;;;;3.42;1.45;;;;;;;27.77;38.08;100252.59;4987792;28;20044;-78
2022/06/23 12:06:59;;;;;;;9.75;2.20;;;;;;;27.82;37.97;100249.94;4978872;28;20397;-79
2022/06/23 12:09:49;;;;;;;14.05;2.47;;;;;;;28.00;38.33;100246.97;4978137;28;20034;-78
2022/06/23 12:12:17;;;;;;;4.60;1.67;;;;;;;28.13;38.52;100245.03;4995476;28;20046;-78
2022/06/23 12:14:43;;;;;;;10.65;2.00;;;;;;;27.93;39.55;100242.66;4978546;28;20026;-80
2022/06/23 12:17:34;;;;;;;7.20;2.03;;;;;;;28.02;39.77;100228.19;4995508;28;20037;-79
2022/06/23 12:20:35;;;;;;;9.80;1.88;;;;;;;28.26;40.46;100241.91;4962762;28;20034;-79
2022/06/23 12:23:35;;;;;;;6.53;1.50;;;;;;;27.96;42.91;100237.47;4995660;28;20022;-79
2022/06/23 12:26:15;;;;;;;11.10;1.58;;;;;;;27.78;43.29;100240.44;4977666;28;20022;-78
2022/06/23 12:28:59;;;;;;;8.48;1.88;;;;;;;27.61;42.96;100231.28;4977150;28;20032;-78
2022/06/23 12:31:49;;;;;;;17.70;2.35;;;;;;;27.47;43.54;100240.91;4973096;28;20404;-78
2022/06/23 12:34:29;;;;;;;8.13;1.63;;;;;;;27.42;43.76;100238.03;4994540;28;20023;-81
2022/06/23 12:37:27;;;;;;;7.35;2.30;;;;;;;27.29;44.50;100250.16;4994699;28;20487;-78
2022/06/23 12:40:11;;;;;;;12.55;2.20;;;;;;;27.15;45.48;100242.41;4942760;28;20506;-79